Time;durP1;ratioP1;P1;durP2;ratioP2;P2;SDS_P1;SDS_P2;PMS_P1;PMS_P2;Temp;Humidity;BMP_temperature;BMP_pressure;BME280_temperature;BME280_humidity;BME280_pressure;Samples;Min_cycle;Max_cycle;Signal;HPM_P1;HPM_P2
2022/12/02 00:00:21;;;;;;;59.40;26.33;;;0.80;99.90;;;;;;5058383;28;20039;-77
2022/12/02 00:02:47;;;;;;;;;;;0.80;99.90;;;;;;5058106;28;20033;-76
2022/12/02 00:05:20;;;;;;;56.70;25.20;;;0.90;99.90;;;;;;5058232;28;19911;-76
2022/12/02 00:07:47;;;;;;;56.33;24.55;;;0.70;99.90;;;;;;5076337;28;20019;-76
2022/12/02 00:10:25;;;;;;;55.60;24.17;;;0.70;99.90;;;;;;5075345;28;20043;-76
2022/12/02 00:12:51;;;;;;;63.20;25.55;;;0.70;99.90;;;;;;5075748;28;20472;-76
2022/12/02 00:15:42;;;;;;;56.67;26.88;;;0.70;99.90;;;;;;5057676;28;20500;-76
2022/12/02 00:18:10;;;;;;;62.03;25.58;;;0.70;99.90;;;;;;5075376;28;20030;-76
2022/12/02 00:20:36;;;;;;;62.30;26.67;;;0.80;99.90;;;;;;5058007;28;20032;-77
2022/12/02 00:23:02;;;;;;;60.20;26.08;;;0.70;99.90;;;;;;5075459;28;20258;-76
2022/12/02 00:25:28;;;;;;;66.68;26.98;;;0.60;99.90;;;;;;5075318;28;20465;-76
2022/12/02 00:27:53;;;;;;;60.40;26.27;;;0.60;99.90;;;;;;5074557;28;20028;-76
2022/12/02 00:30:19;;;;;;;56.95;25.05;;;0.60;99.90;;;;;;5056861;28;20033;-77
2022/12/02 00:32:45;;;;;;;54.55;25.25;;;0.60;99.90;;;;;;5074645;28;20095;-76
2022/12/02 00:35:10;;;;;;;58.22;25.63;;;0.60;99.90;;;;;;5056853;28;20025;-77
2022/12/02 00:37:36;;;;;;;59.92;26.90;;;0.80;99.90;;;;;;5074426;28;20032;-76
2022/12/02 00:40:02;;;;;;;58.40;25.73;;;1.00;99.90;;;;;;5074284;28;20128;-76
2022/12/02 00:42:27;;;;;;;57.58;26.05;;;0.60;99.90;;;;;;5057442;28;20487;-76
2022/12/02 00:47:37;;;;;;;58.42;25.75;;;1.00;99.90;;;;;;5074572;28;20499;-76
2022/12/02 00:50:03;;;;;;;56.58;26.00;;;0.60;99.90;;;;;;5056079;28;20032;-76
2022/12/02 00:52:28;;;;;;;55.55;24.67;;;0.60;99.90;;;;;;5055762;28;20049;-76
2022/12/02 00:54:54;;;;;;;62.38;25.17;;;0.70;99.90;;;;;;5074026;28;20077;-76
2022/12/02 00:57:19;;;;;;;58.45;24.17;;;0.70;99.90;;;;;;5056070;28;20020;-76
2022/12/02 00:59:45;;;;;;;63.10;26.25;;;0.80;99.90;;;;;;5056050;28;20038;-76
2022/12/02 01:02:11;;;;;;;57.63;25.90;;;0.70;99.90;;;;;;5056594;28;20475;-76
2022/12/02 01:04:36;;;;;;;61.13;25.38;;;0.70;99.90;;;;;;5074465;28;20190;-76
2022/12/02 01:07:02;;;;;;;60.25;26.13;;;0.80;99.90;;;;;;5056357;28;20115;-76
2022/12/02 01:09:28;;;;;;;65.85;27.38;;;0.90;99.90;;;;;;5056183;28;20119;-76
2022/12/02 01:11:53;;;;;;;60.15;26.58;;;0.80;99.90;;;;;;5056568;28;20134;-76
2022/12/02 01:14:19;;;;;;;60.90;26.13;;;1.00;99.90;;;;;;5056436;28;20383;-76
2022/12/02 01:16:45;;;;;;;54.25;25.23;;;0.90;99.90;;;;;;5074859;28;20021;-76
2022/12/02 01:19:11;;;;;;;58.58;26.10;;;0.80;99.90;;;;;;5073976;28;20084;-76
2022/12/02 01:21:36;;;;;;;58.88;24.95;;;0.80;99.90;;;;;;5074556;28;20164;-76
2022/12/02 01:24:02;;;;;;;60.78;25.70;;;0.90;99.90;;;;;;5074304;28;20021;-76
2022/12/02 01:26:28;;;;;;;58.83;25.52;;;0.90;99.90;;;;;;5074566;28;20025;-76
2022/12/02 01:28:53;;;;;;;64.47;26.50;;;0.90;99.90;;;;;;5056790;28;20045;-76
2022/12/02 01:31:19;;;;;;;59.72;25.73;;;1.20;99.90;;;;;;5056114;28;20029;-76
2022/12/02 01:33:44;;;;;;;65.60;25.40;;;0.90;99.90;;;;;;5074036;28;20050;-77
2022/12/02 01:36:10;;;;;;;52.70;24.67;;;0.90;99.90;;;;;;5074091;28;20070;-76
2022/12/02 01:38:36;;;;;;;55.95;24.40;;;0.80;99.90;;;;;;5056341;28;20033;-77
2022/12/02 01:41:02;;;;;;;58.35;25.10;;;0.90;99.90;;;;;;5055997;28;20522;-76
2022/12/02 01:43:28;;;;;;;53.65;25.08;;;0.70;99.90;;;;;;5056537;28;20050;-75
2022/12/02 01:45:54;;;;;;;56.08;24.95;;;0.80;99.90;;;;;;5073947;28;20508;-76
2022/12/02 01:48:20;;;;;;;58.83;24.23;;;0.90;99.90;;;;;;5056243;28;20126;-76
2022/12/02 01:50:46;;;;;;;60.45;25.30;;;0.80;99.90;;;;;;5057216;28;20434;-76
2022/12/02 01:53:12;;;;;;;58.20;24.88;;;0.80;99.90;;;;;;5059278;28;20052;-76
2022/12/02 01:55:38;;;;;;;60.10;25.52;;;0.90;99.90;;;;;;5077460;28;20025;-76
2022/12/02 01:58:04;;;;;;;56.90;25.70;;;0.90;99.90;;;;;;5059446;28;20028;-76
2022/12/02 02:00:30;;;;;;;55.28;25.45;;;1.30;99.90;;;;;;5077451;28;20031;-76
2022/12/02 02:02:56;;;;;;;54.92;25.45;;;1.00;99.90;;;;;;5077182;28;20094;-76
2022/12/02 02:05:27;;;;;;;62.40;25.92;;;1.00;99.90;;;;;;5077771;28;20107;-76
2022/12/02 02:08:02;;;;;;;52.63;23.33;;;0.70;99.90;;;;;;5059864;28;20113;-76
2022/12/02 02:10:28;;;;;;;57.05;24.48;;;0.70;99.90;;;;;;5081842;28;20036;-77
2022/12/02 02:12:54;;;;;;;62.50;26.02;;;0.70;99.90;;;;;;5084380;28;20032;-76
2022/12/02 02:15:21;;;;;;;55.65;24.13;;;0.70;99.90;;;;;;5066628;28;20396;-76
2022/12/02 02:17:48;;;;;;;56.00;24.17;;;0.70;99.90;;;;;;5065726;28;20021;-76
2022/12/02 02:20:17;;;;;;;55.17;24.08;;;0.70;99.90;;;;;;5063275;28;20501;-76
2022/12/02 02:23:10;;;;;;;55.58;23.83;;;0.70;99.90;;;;;;5062827;28;20021;-76
2022/12/02 02:25:45;;;;;;;55.53;23.17;;;0.70;99.90;;;;;;5062472;28;20483;-76
2022/12/02 02:28:11;;;;;;;53.90;23.35;;;0.80;99.90;;;;;;5062120;28;20530;-76
2022/12/02 02:30:37;;;;;;;52.58;24.20;;;0.80;99.90;;;;;;5079654;28;20028;-77
2022/12/02 02:33:05;;;;;;;54.33;23.05;;;0.80;99.90;;;;;;5078969;28;20028;-75
2022/12/02 02:35:33;;;;;;;56.90;25.80;;;1.00;99.90;;;;;;5061174;28;20094;-75
2022/12/02 02:37:59;;;;;;;52.97;23.75;;;0.80;99.90;;;;;;5079022;28;20021;-76
2022/12/02 02:40:27;;;;;;;58.17;25.00;;;0.80;99.90;;;;;;5079029;28;20039;-76
2022/12/02 02:42:56;;;;;;;58.00;24.20;;;0.80;99.90;;;;;;5078578;28;20421;-76
2022/12/02 02:45:25;;;;;;;55.85;25.40;;;0.80;99.90;;;;;;5078709;28;20025;-76
2022/12/02 02:47:52;;;;;;;55.05;23.67;;;0.80;99.90;;;;;;5060632;28;20563;-76
2022/12/02 02:50:18;;;;;;;56.80;24.52;;;0.80;99.90;;;;;;5060598;28;20051;-76
2022/12/02 02:52:45;;;;;;;51.72;24.70;;;0.80;99.90;;;;;;5060596;28;20074;-76
2022/12/02 02:55:18;;;;;;;57.70;26.17;;;0.80;99.90;;;;;;5078748;28;20487;-76
2022/12/02 02:57:44;;;;;;;56.38;24.52;;;0.80;99.90;;;;;;5061417;28;20025;-77
2022/12/02 03:00:10;;;;;;;59.75;25.17;;;0.80;99.90;;;;;;5060213;28;20170;-77
2022/12/02 03:02:36;;;;;;;58.83;25.55;;;0.80;99.90;;;;;;5059397;28;20481;-76
2022/12/02 03:05:04;;;;;;;63.40;25.15;;;0.90;99.90;;;;;;5077383;28;20032;-76
2022/12/02 03:07:30;;;;;;;56.60;25.48;;;0.80;99.90;;;;;;5059327;28;20479;-76
2022/12/02 03:09:56;;;;;;;54.63;24.08;;;0.90;99.90;;;;;;5059243;28;20373;-76
2022/12/02 03:12:22;;;;;;;54.92;24.55;;;0.80;99.90;;;;;;5059353;28;20059;-77
2022/12/02 03:14:48;;;;;;;59.60;24.52;;;0.80;99.90;;;;;;5058872;28;20460;-77
2022/12/02 03:17:14;;;;;;;57.20;24.98;;;0.80;99.90;;;;;;5058631;28;20491;-76
2022/12/02 03:19:41;;;;;;;55.38;23.33;;;0.80;99.90;;;;;;5077146;28;20032;-76
2022/12/02 03:22:08;;;;;;;57.42;25.10;;;0.80;99.90;;;;;;5076639;28;20021;-76
2022/12/02 03:24:34;;;;;;;61.00;25.73;;;0.80;99.90;;;;;;5058840;28;20044;-76
2022/12/02 03:27:00;;;;;;;55.30;24.65;;;0.90;99.90;;;;;;5058399;28;20036;-76
2022/12/02 03:29:27;;;;;;;61.15;24.33;;;0.90;99.90;;;;;;5058673;28;20036;-76
2022/12/02 03:31:54;;;;;;;57.60;25.35;;;0.90;99.90;;;;;;5076467;28;20067;-76
2022/12/02 03:34:19;;;;;;;63.28;26.15;;;0.90;99.90;;;;;;5076155;28;20432;-76
2022/12/02 03:36:45;;;;;;;60.25;24.83;;;0.90;99.90;;;;;;5075878;28;20021;-77
2022/12/02 03:39:11;;;;;;;54.67;23.75;;;0.90;99.90;;;;;;5075737;28;20107;-76
2022/12/02 03:41:38;;;;;;;58.08;25.83;;;0.90;99.90;;;;;;5075919;28;20024;-77
2022/12/02 03:44:04;;;;;;;56.05;23.83;;;0.90;99.90;;;;;;5057782;28;20116;-76
2022/12/02 03:46:30;;;;;;;57.05;25.13;;;0.90;99.90;;;;;;5075539;28;20024;-76
2022/12/02 03:48:57;;;;;;;57.15;25.35;;;1.00;99.90;;;;;;5075632;28;20043;-76
2022/12/02 03:51:23;;;;;;;56.20;23.17;;;1.00;99.90;;;;;;5057391;28;20453;-76
2022/12/02 03:53:49;;;;;;;55.60;25.05;;;1.00;99.90;;;;;;5057485;28;20401;-75
2022/12/02 03:56:15;;;;;;;51.83;24.98;;;1.00;99.90;;;;;;5057379;28;20027;-76
2022/12/02 03:58:49;;;;;;;62.97;25.25;;;1.00;99.90;;;;;;5057445;28;20098;-76
2022/12/02 04:01:16;;;;;;;54.38;25.00;;;1.00;99.90;;;;;;5057221;28;20456;-76
2022/12/02 04:03:42;;;;;;;58.15;25.33;;;1.10;99.90;;;;;;5075257;28;20024;-76
2022/12/02 04:06:08;;;;;;;56.25;24.08;;;1.10;99.90;;;;;;5057089;28;20039;-76
2022/12/02 04:08:33;;;;;;;51.95;24.02;;;1.10;99.90;;;;;;5074880;28;20040;-76
2022/12/02 04:11:00;;;;;;;58.70;25.60;;;1.10;99.90;;;;;;5057230;28;20025;-77
2022/12/02 04:13:25;;;;;;;52.95;23.60;;;1.10;99.90;;;;;;5056434;28;20024;-76
2022/12/02 04:15:51;;;;;;;61.78;25.38;;;1.40;99.90;;;;;;5056746;28;20047;-76
2022/12/02 04:18:17;;;;;;;51.13;23.77;;;1.10;99.90;;;;;;5075322;28;20456;-76
2022/12/02 04:20:43;;;;;;;54.20;24.65;;;1.30;99.90;;;;;;5074777;28;20456;-76
2022/12/02 04:23:08;;;;;;;54.45;23.60;;;1.10;99.90;;;;;;5074546;28;20028;-77
2022/12/02 04:25:34;;;;;;;55.25;23.73;;;1.10;99.90;;;;;;5057404;28;20059;-76
2022/12/02 04:28:00;;;;;;;56.92;25.35;;;1.10;99.90;;;;;;5056827;28;20028;-76
2022/12/02 04:30:25;;;;;;;58.40;25.27;;;1.00;99.90;;;;;;5074847;28;20068;-76
2022/12/02 04:32:51;;;;;;;54.83;24.13;;;1.00;99.90;;;;;;5074819;28;20063;-76
2022/12/02 04:35:17;;;;;;;62.95;25.95;;;1.00;99.90;;;;;;5074384;28;20020;-76
2022/12/02 04:37:43;;;;;;;61.00;24.42;;;0.90;99.90;;;;;;5074158;28;20051;-76
2022/12/02 04:40:09;;;;;;;52.67;23.45;;;0.90;99.90;;;;;;5056068;28;20033;-76
2022/12/02 04:42:34;;;;;;;61.55;24.42;;;0.90;99.90;;;;;;5074928;28;20112;-76
2022/12/02 04:45:00;;;;;;;54.65;22.40;;;0.80;99.90;;;;;;5074573;28;20060;-76
2022/12/02 04:47:26;;;;;;;53.35;24.17;;;0.80;99.90;;;;;;5056590;28;20460;-76
2022/12/02 04:49:52;;;;;;;51.70;23.05;;;0.90;99.90;;;;;;5056597;28;20089;-76
2022/12/02 04:52:17;;;;;;;52.60;23.33;;;0.80;99.90;;;;;;5074030;28;20124;-76
2022/12/02 04:54:43;;;;;;;58.20;27.05;;;0.90;99.90;;;;;;5074077;28;20025;-75
2022/12/02 04:57:09;;;;;;;52.72;22.95;;;0.90;99.90;;;;;;5074611;28;20025;-76
2022/12/02 04:59:34;;;;;;;60.33;24.85;;;0.90;99.90;;;;;;5074292;28;20108;-76
2022/12/02 05:02:00;;;;;;;56.65;24.08;;;0.90;99.90;;;;;;5056604;28;20380;-76
2022/12/02 05:04:26;;;;;;;56.92;24.10;;;0.90;99.90;;;;;;5056252;28;20024;-76
2022/12/02 05:06:51;;;;;;;48.85;22.50;;;0.90;99.90;;;;;;5074197;28;20103;-75
2022/12/02 05:09:17;;;;;;;54.80;23.85;;;0.90;99.90;;;;;;5074535;28;20036;-76
2022/12/02 05:11:43;;;;;;;56.78;23.60;;;0.90;99.90;;;;;;5056552;28;20027;-76
2022/12/02 05:14:08;;;;;;;65.22;24.95;;;0.90;99.90;;;;;;5074981;28;20055;-76
2022/12/02 05:16:34;;;;;;;52.50;22.55;;;0.90;99.90;;;;;;5061222;28;20029;-76
2022/12/02 05:19:00;;;;;;;60.35;24.00;;;0.90;99.90;;;;;;5063246;28;20024;-76
2022/12/02 05:21:26;;;;;;;55.50;24.17;;;0.90;99.90;;;;;;5062175;28;20028;-75
2022/12/02 05:23:52;;;;;;;55.13;25.17;;;0.90;99.90;;;;;;5078824;28;20029;-77
2022/12/02 05:26:17;;;;;;;58.50;24.40;;;0.90;99.90;;;;;;5082118;28;20528;-77
2022/12/02 05:28:43;;;;;;;52.83;23.70;;;0.80;99.90;;;;;;5082556;28;20434;-76
2022/12/02 05:31:09;;;;;;;51.67;23.13;;;0.80;99.90;;;;;;5063501;28;20111;-77
2022/12/02 05:33:34;;;;;;;54.50;21.88;;;0.90;99.90;;;;;;5065662;28;20032;-77
2022/12/02 05:36:00;;;;;;;56.60;25.58;;;1.10;99.90;;;;;;5063986;28;20088;-76
2022/12/02 05:38:25;;;;;;;57.83;23.42;;;0.90;99.90;;;;;;5063067;28;20376;-77
2022/12/02 05:40:55;;;;;;;56.45;24.15;;;0.90;99.90;;;;;;5080626;28;20029;-76
2022/12/02 05:43:25;;;;;;;58.78;24.08;;;0.80;99.90;;;;;;5080264;28;20036;-78
2022/12/02 05:45:58;;;;;;;54.78;22.33;;;0.90;99.90;;;;;;5080774;28;20021;-76
2022/12/02 05:48:24;;;;;;;62.70;24.55;;;0.80;99.90;;;;;;5080978;28;20021;-78
2022/12/02 05:50:52;;;;;;;56.78;25.17;;;0.80;99.90;;;;;;5079699;28;20020;-78
2022/12/02 05:53:23;;;;;;;54.58;23.52;;;0.90;99.90;;;;;;5078904;28;20051;-78
2022/12/02 05:55:54;;;;;;;60.15;25.58;;;0.90;99.90;;;;;;5061966;28;20036;-77
2022/12/02 05:58:20;;;;;;;57.50;24.65;;;1.00;99.90;;;;;;5080444;28;20029;-79
2022/12/02 06:00:54;;;;;;;57.78;24.23;;;0.90;99.90;;;;;;5061749;28;20024;-79
2022/12/02 06:03:20;;;;;;;54.70;23.02;;;0.90;99.90;;;;;;5079692;28;20024;-79
2022/12/02 06:05:47;;;;;;;57.80;24.30;;;0.80;99.90;;;;;;5080636;28;20099;-79
2022/12/02 06:08:26;;;;;;;57.80;24.95;;;0.90;99.90;;;;;;5078974;28;20032;-79
2022/12/02 06:11:15;;;;;;;54.25;23.90;;;0.90;99.90;;;;;;5061975;28;20456;-79
2022/12/02 06:13:42;;;;;;;;;;;0.90;99.90;;;;;;5047015;28;20083;-79
2022/12/02 06:16:24;;;;;;;60.88;24.75;;;0.90;99.90;;;;;;5078706;28;19912;-79
2022/12/02 06:18:50;;;;;;;59.92;26.52;;;0.90;99.90;;;;;;5078802;28;20066;-79
2022/12/02 06:21:19;;;;;;;55.72;22.83;;;0.90;99.90;;;;;;5061131;28;20108;-79
2022/12/02 06:23:46;;;;;;;;;;;1.10;99.90;;;;;;5060873;28;20025;-79
2022/12/02 06:26:14;;;;;;;53.33;23.23;;;1.00;99.90;;;;;;5060599;28;19904;-79
2022/12/02 06:28:43;;;;;;;55.10;23.67;;;0.90;99.90;;;;;;5060700;28;20039;-79
2022/12/02 06:31:30;;;;;;;63.58;26.17;;;0.90;99.90;;;;;;5060583;28;20108;-79
2022/12/02 06:33:58;;;;;;;57.10;24.98;;;0.90;99.90;;;;;;5078181;28;20025;-79
2022/12/02 06:36:30;;;;;;;72.72;27.48;;;0.90;99.90;;;;;;5077718;28;20086;-79
2022/12/02 06:39:02;;;;;;;65.82;25.77;;;1.00;99.90;;;;;;5060260;28;20029;-79
2022/12/02 06:41:30;;;;;;;59.55;25.88;;;0.90;99.90;;;;;;5078142;28;20032;-79
2022/12/02 06:46:51;;;;;;;61.65;26.10;;;0.90;99.90;;;;;;5077911;28;20038;-79
2022/12/02 06:49:32;;;;;;;57.17;25.52;;;0.90;99.90;;;;;;5078058;28;20120;-79
2022/12/02 06:52:05;;;;;;;66.10;27.20;;;0.90;99.90;;;;;;5077950;28;20047;-79
2022/12/02 06:54:31;;;;;;;68.03;26.90;;;1.00;99.90;;;;;;5060183;28;20031;-79
2022/12/02 06:56:59;;;;;;;60.90;24.95;;;1.00;99.90;;;;;;5077909;28;20058;-79
2022/12/02 06:59:26;;;;;;;71.22;29.17;;;1.00;99.90;;;;;;5077114;28;20032;-79
2022/12/02 07:01:55;;;;;;;67.95;27.10;;;1.20;99.90;;;;;;5077211;28;20059;-79
2022/12/02 07:04:48;;;;;;;59.03;24.80;;;1.10;99.90;;;;;;5078123;28;20025;-79
2022/12/02 07:07:22;;;;;;;62.17;26.42;;;1.00;99.90;;;;;;5061013;28;20024;-79
2022/12/02 07:10:12;;;;;;;58.80;25.80;;;1.00;99.90;;;;;;5078801;28;20037;-79
2022/12/02 07:12:42;;;;;;;67.05;26.27;;;1.00;99.90;;;;;;5078621;28;20067;-79
2022/12/02 07:15:08;;;;;;;66.35;26.23;;;1.20;99.90;;;;;;5078374;28;20021;-80
2022/12/02 07:17:43;;;;;;;65.13;26.75;;;1.00;99.90;;;;;;5077896;28;20021;-79
2022/12/02 07:20:11;;;;;;;65.65;27.70;;;1.10;99.90;;;;;;5061091;28;20109;-80
2022/12/02 07:22:46;;;;;;;57.95;25.95;;;1.10;99.90;;;;;;5060064;28;20016;-80
2022/12/02 07:25:15;;;;;;;70.32;27.63;;;1.20;99.90;;;;;;5060927;28;20459;-79
2022/12/02 07:27:44;;;;;;;61.72;26.77;;;1.20;99.90;;;;;;5061120;28;20031;-80
2022/12/02 07:30:35;;;;;;;64.82;27.98;;;1.20;99.90;;;;;;5079374;28;20040;-80
2022/12/02 07:33:01;;;;;;;64.03;27.30;;;1.30;99.90;;;;;;5051256;28;20037;-79
2022/12/02 07:35:27;;;;;;;64.60;27.63;;;1.20;99.90;;;;;;5061037;28;20025;-80
2022/12/02 07:37:53;;;;;;;61.08;26.02;;;1.20;99.90;;;;;;5061890;28;20106;-80
2022/12/02 07:40:19;;;;;;;61.88;27.42;;;1.30;99.90;;;;;;5062857;28;20060;-80
2022/12/02 07:42:45;;;;;;;63.70;27.65;;;1.20;99.90;;;;;;5063190;28;20055;-80
2022/12/02 07:45:17;;;;;;;59.65;29.15;;;1.30;99.90;;;;;;5063969;28;20025;-80
2022/12/02 07:47:42;;;;;;;66.03;26.58;;;1.30;99.90;;;;;;5064143;28;20361;-80
2022/12/02 07:50:11;;;;;;;56.65;26.55;;;1.30;99.90;;;;;;5081459;28;20039;-80
2022/12/02 07:52:37;;;;;;;;;;;1.30;99.90;;;;;;5083379;28;20460;-80
2022/12/02 07:55:04;;;;;;;59.75;26.50;;;1.30;99.90;;;;;;5064705;28;19904;-80
2022/12/02 07:57:29;;;;;;;54.80;25.13;;;1.30;99.90;;;;;;5066129;28;20488;-81
2022/12/02 07:59:55;;;;;;;61.13;26.83;;;1.30;99.90;;;;;;5065827;28;20046;-80
2022/12/02 08:02:21;;;;;;;61.60;25.98;;;1.30;99.90;;;;;;5082112;28;20070;-80
2022/12/02 08:04:47;;;;;;;58.47;27.95;;;1.30;99.90;;;;;;5087014;28;20028;-81
2022/12/02 08:07:12;;;;;;;58.38;25.85;;;1.30;99.90;;;;;;5070567;28;20418;-80
2022/12/02 08:09:38;;;;;;;57.78;25.70;;;1.40;99.90;;;;;;5073216;28;20037;-82
2022/12/02 08:12:04;;;;;;;52.97;24.25;;;1.40;99.90;;;;;;5073339;28;20021;-81
2022/12/02 08:14:30;;;;;;;54.00;25.75;;;1.40;99.90;;;;;;5071230;28;20029;-82
2022/12/02 08:16:55;;;;;;;60.25;26.67;;;1.40;99.90;;;;;;5069120;28;20028;-81
2022/12/02 08:19:22;;;;;;;59.60;26.60;;;1.40;99.90;;;;;;5088071;28;20035;-81
2022/12/02 08:21:47;;;;;;;57.95;26.65;;;1.40;99.90;;;;;;5089302;28;20028;-81
2022/12/02 08:24:13;;;;;;;60.65;24.90;;;1.40;99.90;;;;;;5072430;28;20457;-82
2022/12/02 08:26:38;;;;;;;68.65;28.65;;;1.40;99.90;;;;;;5072440;28;20044;-81
2022/12/02 08:29:04;;;;;;;62.33;27.33;;;1.50;99.90;;;;;;5073456;28;20058;-82
2022/12/02 08:31:30;;;;;;;57.33;25.83;;;1.50;99.90;;;;;;5091205;28;20024;-81
2022/12/02 08:33:56;;;;;;;62.20;26.55;;;1.50;99.90;;;;;;5074065;28;20011;-82
2022/12/02 08:36:22;;;;;;;58.08;26.98;;;1.50;99.90;;;;;;5074647;28;20024;-82
2022/12/02 08:38:48;;;;;;;63.22;27.73;;;1.60;99.90;;;;;;5075277;28;20035;-82
2022/12/02 08:41:15;;;;;;;58.95;27.30;;;1.60;99.90;;;;;;5074965;28;20020;-82
2022/12/02 08:43:41;;;;;;;61.25;28.05;;;1.70;99.90;;;;;;5093556;28;20031;-82
2022/12/02 08:46:07;;;;;;;64.40;26.42;;;1.80;99.90;;;;;;5092824;28;20025;-81
2022/12/02 08:48:33;;;;;;;62.03;27.42;;;1.70;99.90;;;;;;5093799;28;20021;-82
2022/12/02 08:50:59;;;;;;;61.40;27.20;;;1.70;99.90;;;;;;5073571;28;20071;-81
2022/12/02 08:53:24;;;;;;;61.65;27.25;;;1.70;99.90;;;;;;5070973;28;20112;-81
2022/12/02 08:55:50;;;;;;;60.42;28.17;;;1.70;99.90;;;;;;5068849;28;20028;-81
2022/12/02 08:58:16;;;;;;;61.50;28.67;;;1.80;99.90;;;;;;5068753;28;20020;-82
2022/12/02 09:00:42;;;;;;;62.58;26.40;;;1.70;99.90;;;;;;5067841;28;20057;-82
2022/12/02 09:03:08;;;;;;;66.85;28.92;;;1.80;99.90;;;;;;5070312;28;20481;-82
2022/12/02 09:05:36;;;;;;;71.55;30.52;;;1.90;99.90;;;;;;5092220;28;20377;-82
2022/12/02 09:08:03;;;;;;;67.90;29.65;;;1.80;99.90;;;;;;5094252;28;20029;-82
2022/12/02 09:10:29;;;;;;;68.85;31.58;;;1.80;99.90;;;;;;5093580;28;20037;-82
2022/12/02 09:12:55;;;;;;;67.45;29.65;;;1.90;99.90;;;;;;5077757;28;20035;-82
2022/12/02 09:15:21;;;;;;;62.92;29.02;;;2.00;99.90;;;;;;5097653;28;20033;-83
2022/12/02 09:17:47;;;;;;;63.60;28.27;;;2.00;99.90;;;;;;5080867;28;20013;-83
2022/12/02 09:20:13;;;;;;;69.45;31.00;;;2.10;99.90;;;;;;5081037;28;20052;-82
2022/12/02 09:22:39;;;;;;;65.57;28.65;;;2.20;99.90;;;;;;5081312;28;20012;-83
2022/12/02 09:25:05;;;;;;;68.18;28.42;;;2.20;99.90;;;;;;5081519;28;20051;-82
2022/12/02 09:27:31;;;;;;;73.20;29.70;;;2.30;99.90;;;;;;5081254;28;20055;-82
2022/12/02 09:29:57;;;;;;;67.18;29.30;;;2.30;99.90;;;;;;5081189;28;20028;-82
2022/12/02 09:32:23;;;;;;;69.95;29.67;;;2.40;99.90;;;;;;5081245;28;20029;-82
2022/12/02 09:34:49;;;;;;;67.22;29.25;;;2.40;99.90;;;;;;5098333;28;20017;-82
2022/12/02 09:37:14;;;;;;;68.43;30.25;;;2.30;99.90;;;;;;5081243;28;20008;-82
2022/12/02 09:42:10;;;;;;;63.53;28.30;;;2.60;99.90;;;;;;5075237;28;20033;-83
2022/12/02 09:44:37;;;;;;;61.33;28.77;;;2.50;99.90;;;;;;5060774;28;20017;-82
2022/12/02 09:47:03;;;;;;;63.55;28.92;;;2.80;99.90;;;;;;5077633;28;20478;-82
2022/12/02 09:49:30;;;;;;;65.63;29.55;;;2.60;99.90;;;;;;5077854;28;20009;-82
2022/12/02 09:52:00;;;;;;;66.88;28.65;;;2.50;99.90;;;;;;5077294;28;20007;-82
2022/12/02 09:54:26;;;;;;;65.28;30.15;;;2.90;99.90;;;;;;5059928;28;20053;-82
2022/12/02 09:56:53;;;;;;;66.05;29.75;;;2.40;99.90;;;;;;5060781;28;20013;-80
2022/12/02 09:59:18;;;;;;;65.82;29.00;;;4.60;99.90;;;;;;5078059;28;20028;-83
2022/12/02 10:01:47;;;;;;;70.45;30.40;;;4.00;99.90;;;;;;5059986;28;20029;-83
2022/12/02 10:04:18;;;;;;;68.15;29.83;;;2.50;99.90;;;;;;5077886;28;20028;-83
2022/12/02 10:09:27;;;;;;;74.68;30.98;;;2.10;99.90;;;;;;5556099;23;20036;-82
2022/12/02 10:11:53;;;;;;;68.47;29.27;;;3.50;99.90;;;;;;5099035;28;20008;-83
2022/12/02 10:14:19;;;;;;;63.15;29.25;;;3.90;99.90;;;;;;5100814;28;20055;-83
2022/12/02 10:16:45;;;;;;;65.57;30.75;;;1.90;99.90;;;;;;5099925;28;20027;-83
2022/12/02 10:19:20;;;;;;;65.70;30.02;;;2.50;99.90;;;;;;5098785;28;20024;-83
2022/12/02 10:21:46;;;;;;;70.32;30.65;;;2.40;99.90;;;;;;5098892;28;20107;-82
2022/12/02 10:24:12;;;;;;;69.00;30.10;;;2.30;99.90;;;;;;5096945;28;20008;-82
2022/12/02 10:26:47;;;;;;;70.72;29.38;;;2.30;99.90;;;;;;5093609;28;20031;-84
2022/12/02 10:29:30;;;;;;;71.97;30.92;;;2.20;99.90;;;;;;5092623;28;20035;-82
2022/12/02 10:32:02;;;;;;;69.97;31.08;;;2.10;99.90;;;;;;5074127;28;20025;-82
2022/12/02 10:34:30;;;;;;;67.72;30.23;;;3.10;99.90;;;;;;5070760;28;20032;-81
2022/12/02 10:36:55;;;;;;;70.30;30.27;;;2.70;99.90;;;;;;5087916;28;20020;-81
2022/12/02 10:39:34;;;;;;;72.43;30.15;;;2.50;99.90;;;;;;5084445;28;20063;-80
2022/12/02 10:42:02;;;;;;;69.32;30.88;;;2.30;99.90;;;;;;5063789;28;20029;-80
2022/12/02 10:44:29;;;;;;;72.38;30.40;;;2.30;99.90;;;;;;5078486;28;20070;-80
2022/12/02 10:47:15;;;;;;;66.47;29.92;;;2.30;99.90;;;;;;5061254;28;20028;-79
2022/12/02 10:49:52;;;;;;;77.03;32.60;;;2.30;99.90;;;;;;5060943;28;20033;-79
2022/12/02 10:52:23;;;;;;;73.88;31.98;;;2.30;99.90;;;;;;5078851;28;20024;-80
2022/12/02 10:54:52;;;;;;;71.90;32.05;;;2.40;99.90;;;;;;5078891;28;20021;-80
2022/12/02 10:57:28;;;;;;;74.07;32.85;;;2.50;99.90;;;;;;5078380;28;20021;-80
2022/12/02 10:59:56;;;;;;;68.28;30.67;;;2.40;99.90;;;;;;5078994;28;20362;-80
2022/12/02 11:02:44;;;;;;;68.90;30.27;;;2.40;99.90;;;;;;5062514;28;20116;-80
2022/12/02 11:05:19;;;;;;;71.90;32.05;;;2.40;99.90;;;;;;5062555;28;20020;-80
2022/12/02 11:07:56;;;;;;;70.70;31.80;;;2.30;99.90;;;;;;5062163;28;20120;-80
2022/12/02 11:10:31;;;;;;;71.90;32.55;;;2.30;99.90;;;;;;5059698;28;20049;-79
2022/12/02 11:13:01;;;;;;;75.45;32.58;;;2.30;99.90;;;;;;5077192;28;20036;-80
2022/12/02 11:15:43;;;;;;;76.05;32.80;;;2.30;99.90;;;;;;5058742;28;20096;-79
2022/12/02 11:18:27;;;;;;;73.85;32.03;;;2.30;99.90;;;;;;5077411;28;20031;-79
2022/12/02 11:20:53;;;;;;;77.60;33.58;;;2.20;99.90;;;;;;5058712;28;20086;-79
2022/12/02 11:23:19;;;;;;;80.78;34.38;;;2.20;99.90;;;;;;5058083;28;20028;-79
2022/12/02 11:25:48;;;;;;;89.35;35.90;;;2.10;99.90;;;;;;5058358;28;20021;-79
2022/12/02 11:28:28;;;;;;;85.25;35.97;;;2.10;99.90;;;;;;5076192;28;20073;-79
2022/12/02 11:31:14;;;;;;;80.80;36.00;;;2.00;99.90;;;;;;5075935;28;20039;-80
2022/12/02 11:34:00;;;;;;;88.68;35.13;;;1.90;99.90;;;;;;5077431;28;20135;-80
2022/12/02 11:36:29;;;;;;;80.53;35.47;;;1.90;99.90;;;;;;5062637;28;20033;-80
2022/12/02 11:39:04;;;;;;;84.18;35.38;;;2.00;99.90;;;;;;5063496;28;20028;-80
2022/12/02 11:41:48;;;;;;;90.50;36.45;;;1.90;99.90;;;;;;5066103;28;20075;-80
2022/12/02 11:44:28;;;;;;;89.53;37.45;;;1.80;99.90;;;;;;5062858;28;20028;-80
2022/12/02 11:46:54;;;;;;;87.40;38.08;;;1.80;99.90;;;;;;5059925;28;20032;-80
2022/12/02 11:49:39;;;;;;;96.65;38.78;;;1.70;99.90;;;;;;5076551;28;20037;-78
2022/12/02 11:52:08;;;;;;;108.70;41.45;;;1.70;99.90;;;;;;5058314;28;20024;-76
2022/12/02 11:58:02;;;;;;;96.15;40.80;;;1.70;99.90;;;;;;5036220;28;20033;-80
2022/12/02 12:00:32;;;;;;;102.63;40.17;;;1.70;99.90;;;;;;5049424;28;20044;-83
2022/12/02 12:03:05;;;;;;;116.45;41.13;;;1.70;99.90;;;;;;5032252;28;20041;-83
2022/12/02 12:05:31;;;;;;;99.05;40.78;;;1.70;99.90;;;;;;5029115;28;20033;-82
2022/12/02 12:07:57;;;;;;;102.15;40.45;;;1.70;99.90;;;;;;5042962;28;20053;-81
2022/12/02 12:10:34;;;;;;;103.78;41.95;;;1.70;99.90;;;;;;5041732;28;20049;-81
2022/12/02 12:13:22;;;;;;;103.45;41.65;;;1.70;99.90;;;;;;5038913;28;20037;-80
2022/12/02 12:15:52;;;;;;;105.15;42.03;;;1.70;99.90;;;;;;5037090;28;20037;-79
2022/12/02 12:18:38;;;;;;;111.35;42.90;;;1.70;99.90;;;;;;5019194;28;20144;-79
2022/12/02 12:21:05;;;;;;;94.60;41.05;;;1.70;99.90;;;;;;5034754;28;20540;-78
2022/12/02 12:23:39;;;;;;;102.15;39.65;;;1.70;99.90;;;;;;5034026;28;20500;-78
2022/12/02 12:26:07;;;;;;;95.35;39.42;;;1.60;99.90;;;;;;5034035;28;20033;-77
2022/12/02 12:28:35;;;;;;;93.90;39.03;;;1.60;99.90;;;;;;5017445;28;20033;-77
2022/12/02 12:31:05;;;;;;;112.25;41.78;;;1.60;99.90;;;;;;5016889;28;20040;-77
2022/12/02 12:33:30;;;;;;;92.65;40.60;;;1.60;99.90;;;;;;5023060;28;20040;-77
2022/12/02 12:35:57;;;;;;;93.65;38.58;;;1.60;99.90;;;;;;5057184;28;20025;-77
2022/12/02 12:38:25;;;;;;;95.38;38.03;;;1.60;99.90;;;;;;5057192;28;20056;-76
2022/12/02 12:40:51;;;;;;;103.47;40.20;;;1.50;99.90;;;;;;5076525;28;20107;-77
2022/12/02 12:43:17;;;;;;;100.40;40.35;;;1.60;99.90;;;;;;5080633;28;20060;-76
2022/12/02 12:45:43;;;;;;;86.13;36.63;;;1.60;99.90;;;;;;5060577;28;20082;-76
2022/12/02 12:48:08;;;;;;;90.93;38.20;;;1.50;99.90;;;;;;5059418;28;20028;-76
2022/12/02 12:50:34;;;;;;;100.05;40.55;;;1.50;99.90;;;;;;5058950;28;20039;-76
2022/12/02 12:52:59;;;;;;;96.97;38.28;;;1.50;99.90;;;;;;5076701;28;20021;-75
2022/12/02 12:55:25;;;;;;;89.13;37.67;;;1.40;99.90;;;;;;5058871;28;20039;-75
2022/12/02 12:57:51;;;;;;;87.47;36.63;;;1.50;99.90;;;;;;5057945;28;20029;-75